Time;durP1;ratioP1;P1;durP2;ratioP2;P2;SDS_P1;SDS_P2;PMS_P1;PMS_P2;Temp;Humidity;BMP_temperature;BMP_pressure;BME280_temperature;BME280_humidity;BME280_pressure;Samples;Min_cycle;Max_cycle;Signal;HPM_P1;HPM_P2
2023/08/23 00:01:24;;;;;;;17.92;9.35;;;;;;;;;;5051759;28;20025;-75
2023/08/23 00:03:53;;;;;;;16.13;9.40;;;;;;;;;;5052203;28;20025;-75
2023/08/23 00:06:19;;;;;;;16.63;9.52;;;;;;;;;;5055304;28;20087;-75
2023/08/23 00:08:45;;;;;;;12.40;9.65;;;;;;;;;;5055279;28;20026;-75
2023/08/23 00:11:11;;;;;;;14.93;9.35;;;;;;;;;;5055086;28;20479;-75
2023/08/23 00:13:37;;;;;;;17.90;10.38;;;;;;;;;;5055046;28;20037;-75
2023/08/23 00:16:03;;;;;;;17.23;10.00;;;;;;;;;;5055095;28;20036;-75
2023/08/23 00:18:29;;;;;;;13.77;9.98;;;;;;;;;;5055085;28;20029;-75
2023/08/23 00:20:55;;;;;;;13.75;9.55;;;;;;;;;;5055050;28;20073;-75
2023/08/23 00:23:21;;;;;;;18.80;10.50;;;;;;;;;;5054988;28;20386;-75
2023/08/23 00:25:47;;;;;;;15.35;10.40;;;;;;;;;;5054861;28;20036;-75
2023/08/23 00:28:15;;;;;;;16.02;10.27;;;;;;;;;;5054913;28;20036;-75
2023/08/23 00:30:51;;;;;;;14.82;10.27;;;;;;;;;;5055193;28;20032;-75
2023/08/23 00:33:17;;;;;;;19.23;11.55;;;;;;;;;;5054673;28;20033;-75
2023/08/23 00:35:43;;;;;;;16.25;10.45;;;;;;;;;;5054657;28;20456;-75
2023/08/23 00:38:09;;;;;;;18.45;10.25;;;;;;;;;;5054673;28;20025;-75
2023/08/23 00:40:35;;;;;;;16.63;9.82;;;;;;;;;;5054621;28;20563;-75
2023/08/23 00:43:02;;;;;;;15.45;10.00;;;;;;;;;;5054087;28;20029;-75
2023/08/23 00:45:31;;;;;;;15.63;10.07;;;;;;;;;;5054584;28;20032;-75
2023/08/23 00:47:57;;;;;;;16.02;10.05;;;;;;;;;;5054452;28;20036;-75
2023/08/23 00:50:23;;;;;;;16.10;10.32;;;;;;;;;;5054421;28;20017;-75
2023/08/23 00:52:49;;;;;;;16.75;10.57;;;;;;;;;;5054325;28;20059;-75
2023/08/23 00:55:15;;;;;;;16.40;10.57;;;;;;;;;;5054381;28;20036;-75
2023/08/23 00:57:41;;;;;;;17.88;10.95;;;;;;;;;;5054340;28;20021;-75
2023/08/23 01:00:07;;;;;;;15.15;10.05;;;;;;;;;;5054236;28;20061;-75
2023/08/23 01:02:35;;;;;;;20.45;11.07;;;;;;;;;;5054209;28;20017;-75
2023/08/23 01:05:01;;;;;;;17.67;10.10;;;;;;;;;;5054420;28;20017;-75
2023/08/23 01:07:34;;;;;;;18.33;11.35;;;;;;;;;;5054595;28;20486;-75
2023/08/23 01:10:19;;;;;;;15.50;10.57;;;;;;;;;;5054068;28;20028;-75
2023/08/23 01:13:05;;;;;;;16.63;10.35;;;;;;;;;;5053682;28;20112;-75
2023/08/23 01:15:32;;;;;;;17.17;10.75;;;;;;;;;;5052714;28;20052;-75
2023/08/23 01:17:58;;;;;;;18.08;11.43;;;;;;;;;;5054075;28;20060;-75
2023/08/23 01:20:25;;;;;;;17.50;10.95;;;;;;;;;;5053938;28;20031;-75
2023/08/23 01:22:55;;;;;;;15.27;10.70;;;;;;;;;;5053860;28;20440;-75
2023/08/23 01:25:21;;;;;;;17.13;11.02;;;;;;;;;;5053755;28;20448;-75
2023/08/23 01:27:47;;;;;;;17.17;10.93;;;;;;;;;;5053809;28;20029;-75
2023/08/23 01:30:14;;;;;;;18.20;11.45;;;;;;;;;;5053681;28;20104;-75
2023/08/23 01:32:52;;;;;;;13.27;10.32;;;;;;;;;;5053512;28;20368;-75
2023/08/23 01:35:19;;;;;;;17.13;12.00;;;;;;;;;;5053576;28;20059;-75
2023/08/23 01:37:47;;;;;;;17.13;10.48;;;;;;;;;;5053585;28;20029;-75
2023/08/23 01:40:14;;;;;;;16.73;11.05;;;;;;;;;;5053456;28;20112;-75
2023/08/23 01:42:41;;;;;;;17.45;11.43;;;;;;;;;;5053453;28;20063;-75
2023/08/23 01:45:07;;;;;;;15.88;11.30;;;;;;;;;;5053438;28;20135;-75
2023/08/23 01:47:33;;;;;;;18.02;11.32;;;;;;;;;;5053285;28;20025;-75
2023/08/23 01:49:59;;;;;;;15.43;11.80;;;;;;;;;;5053506;28;20422;-75
2023/08/23 01:52:25;;;;;;;15.50;10.85;;;;;;;;;;5053060;28;20405;-75
2023/08/23 01:54:57;;;;;;;18.52;11.60;;;;;;;;;;5053154;28;20118;-75
2023/08/23 01:57:23;;;;;;;15.23;11.20;;;;;;;;;;5053067;28;20029;-75
2023/08/23 01:59:50;;;;;;;18.30;10.88;;;;;;;;;;5052873;28;20036;-75
2023/08/23 02:02:16;;;;;;;18.92;11.60;;;;;;;;;;5052951;28;20055;-74
2023/08/23 02:04:42;;;;;;;19.25;11.80;;;;;;;;;;5053091;28;20029;-75
2023/08/23 02:07:08;;;;;;;17.48;11.30;;;;;;;;;;5052953;28;20029;-75
2023/08/23 02:09:34;;;;;;;17.77;11.38;;;;;;;;;;5052997;28;20032;-75
2023/08/23 02:12:00;;;;;;;15.43;10.65;;;;;;;;;;5052905;28;20453;-75
2023/08/23 02:14:26;;;;;;;18.67;12.05;;;;;;;;;;5052779;28;20116;-75
2023/08/23 02:16:52;;;;;;;17.00;12.43;;;;;;;;;;5052806;28;20105;-75
2023/08/23 02:19:18;;;;;;;21.23;12.30;;;;;;;;;;5052730;28;20036;-75
2023/08/23 02:21:44;;;;;;;20.20;11.93;;;;;;;;;;5052707;28;20032;-75
2023/08/23 02:24:10;;;;;;;21.08;12.43;;;;;;;;;;5052894;28;20039;-75
2023/08/23 02:26:36;;;;;;;20.42;11.40;;;;;;;;;;5052529;28;20021;-75
2023/08/23 02:29:03;;;;;;;17.65;11.77;;;;;;;;;;5052547;28;20025;-75
2023/08/23 02:31:29;;;;;;;16.83;12.43;;;;;;;;;;5052572;28;20024;-75
2023/08/23 02:33:55;;;;;;;17.45;11.73;;;;;;;;;;5052799;28;20120;-75
2023/08/23 02:36:21;;;;;;;21.23;14.38;;;;;;;;;;5052583;28;20101;-75
2023/08/23 02:38:47;;;;;;;16.90;11.50;;;;;;;;;;5052532;28;20108;-75
2023/08/23 02:41:13;;;;;;;19.98;12.63;;;;;;;;;;5052522;28;20104;-75
2023/08/23 02:43:53;;;;;;;19.88;13.02;;;;;;;;;;5051303;28;20130;-75
2023/08/23 02:46:19;;;;;;;19.70;13.00;;;;;;;;;;5052516;28;20025;-75
2023/08/23 02:48:45;;;;;;;19.15;12.90;;;;;;;;;;5052490;28;20384;-75
2023/08/23 02:51:11;;;;;;;19.35;12.45;;;;;;;;;;5052461;28;20070;-75
2023/08/23 02:53:37;;;;;;;23.23;13.65;;;;;;;;;;5052317;28;20365;-75
2023/08/23 02:56:03;;;;;;;17.75;12.15;;;;;;;;;;5052308;28;20031;-75
2023/08/23 02:58:29;;;;;;;19.45;12.93;;;;;;;;;;5052311;28;20029;-75
2023/08/23 03:00:55;;;;;;;18.48;12.20;;;;;;;;;;5052334;28;20025;-75
2023/08/23 03:03:21;;;;;;;19.55;12.43;;;;;;;;;;5052310;28;20025;-75
2023/08/23 03:05:53;;;;;;;24.63;13.88;;;;;;;;;;5052714;28;20105;-75
2023/08/23 03:08:19;;;;;;;19.05;13.30;;;;;;;;;;5052318;28;20035;-75
2023/08/23 03:10:46;;;;;;;18.45;12.70;;;;;;;;;;5052327;28;20489;-75
2023/08/23 03:13:12;;;;;;;20.50;13.10;;;;;;;;;;5052426;28;20067;-75
2023/08/23 03:15:38;;;;;;;22.17;13.55;;;;;;;;;;5052187;28;20032;-75
2023/08/23 03:18:04;;;;;;;19.67;12.93;;;;;;;;;;5052079;28;20029;-75
2023/08/23 03:20:30;;;;;;;20.75;13.52;;;;;;;;;;5052206;28;20040;-75
2023/08/23 03:22:56;;;;;;;17.55;12.60;;;;;;;;;;5051546;28;20349;-75
2023/08/23 03:25:22;;;;;;;20.27;13.13;;;;;;;;;;5052362;28;20021;-75
2023/08/23 03:27:52;;;;;;;23.00;13.65;;;;;;;;;;5052088;28;20021;-75
2023/08/23 03:30:18;;;;;;;19.85;13.85;;;;;;;;;;5052002;28;20392;-75
2023/08/23 03:32:44;;;;;;;19.05;12.95;;;;;;;;;;5051959;28;20126;-75
2023/08/23 03:35:10;;;;;;;20.33;14.02;;;;;;;;;;5052042;28;20479;-75
2023/08/23 03:37:36;;;;;;;21.63;14.63;;;;;;;;;;5052022;28;20025;-75
2023/08/23 03:40:02;;;;;;;21.75;14.40;;;;;;;;;;5054416;28;20025;-75
2023/08/23 03:42:29;;;;;;;22.55;13.73;;;;;;;;;;5055679;28;20025;-75
2023/08/23 03:44:55;;;;;;;25.17;14.82;;;;;;;;;;5055320;28;20535;-75
2023/08/23 03:47:21;;;;;;;24.83;15.00;;;;;;;;;;5055642;28;20035;-75
2023/08/23 03:49:48;;;;;;;24.02;15.52;;;;;;;;;;5055520;28;20112;-75
2023/08/23 03:52:14;;;;;;;23.17;14.65;;;;;;;;;;5055885;28;20460;-75
2023/08/23 03:54:40;;;;;;;29.75;16.63;;;;;;;;;;5055433;28;20112;-75
2023/08/23 03:57:06;;;;;;;21.88;14.90;;;;;;;;;;5055452;28;20025;-75
2023/08/23 03:59:32;;;;;;;28.23;16.35;;;;;;;;;;5055469;28;20369;-75
2023/08/23 04:01:58;;;;;;;26.73;15.98;;;;;;;;;;5055382;28;20056;-75
2023/08/23 04:04:24;;;;;;;28.75;16.85;;;;;;;;;;5055281;28;20044;-75
2023/08/23 04:06:50;;;;;;;27.42;15.70;;;;;;;;;;5055432;28;20040;-75
2023/08/23 04:09:16;;;;;;;29.13;17.55;;;;;;;;;;5055237;28;20040;-75
2023/08/23 04:11:42;;;;;;;26.42;17.02;;;;;;;;;;5055560;28;20034;-75
2023/08/23 04:14:08;;;;;;;27.25;17.83;;;;;;;;;;5055031;28;20029;-75
2023/08/23 04:16:34;;;;;;;31.88;18.67;;;;;;;;;;5055127;28;20075;-75
2023/08/23 04:19:00;;;;;;;39.42;20.70;;;;;;;;;;5054981;28;20056;-75
2023/08/23 04:21:27;;;;;;;30.92;18.70;;;;;;;;;;5055132;28;20411;-75
2023/08/23 04:23:53;;;;;;;31.35;19.60;;;;;;;;;;5055248;28;20029;-75
2023/08/23 04:26:19;;;;;;;30.30;18.85;;;;;;;;;;5054959;28;20048;-75
2023/08/23 04:28:47;;;;;;;32.80;20.08;;;;;;;;;;5055230;28;20029;-75
2023/08/23 04:31:13;;;;;;;32.42;19.55;;;;;;;;;;5054793;28;20021;-75
2023/08/23 04:33:39;;;;;;;32.35;19.08;;;;;;;;;;5054426;28;20029;-75
2023/08/23 04:36:05;;;;;;;36.35;21.70;;;;;;;;;;5054774;28;20057;-75
2023/08/23 04:38:31;;;;;;;38.13;22.35;;;;;;;;;;5054880;28;20514;-75
2023/08/23 04:41:01;;;;;;;32.30;19.85;;;;;;;;;;5054650;28;20433;-75
2023/08/23 04:43:28;;;;;;;34.35;20.40;;;;;;;;;;5053786;28;20020;-75
2023/08/23 04:45:57;;;;;;;32.22;20.40;;;;;;;;;;5054656;28;20092;-75
2023/08/23 04:48:23;;;;;;;35.63;21.23;;;;;;;;;;5054545;28;20032;-75
2023/08/23 04:50:56;;;;;;;33.17;21.23;;;;;;;;;;5053358;28;20650;-75
2023/08/23 04:53:22;;;;;;;34.95;22.05;;;;;;;;;;5054414;28;20025;-75
2023/08/23 04:55:48;;;;;;;32.85;20.77;;;;;;;;;;5054564;28;20116;-75
2023/08/23 04:58:15;;;;;;;33.65;20.17;;;;;;;;;;5054345;28;20025;-75
2023/08/23 05:00:41;;;;;;;33.67;20.58;;;;;;;;;;5054331;28;20399;-75
2023/08/23 05:03:07;;;;;;;34.08;20.10;;;;;;;;;;5054311;28;20037;-75
2023/08/23 05:05:35;;;;;;;32.80;20.23;;;;;;;;;;5054321;28;20025;-75
2023/08/23 05:08:01;;;;;;;32.83;20.85;;;;;;;;;;5054414;28;20047;-75
2023/08/23 05:10:27;;;;;;;30.08;19.17;;;;;;;;;;5054062;28;20099;-75
2023/08/23 05:12:55;;;;;;;32.05;20.33;;;;;;;;;;5054010;28;20033;-75
2023/08/23 05:15:22;;;;;;;31.23;18.48;;;;;;;;;;5054330;28;20029;-75
2023/08/23 05:17:48;;;;;;;29.25;19.02;;;;;;;;;;5054274;28;20040;-75
2023/08/23 05:20:14;;;;;;;35.63;21.40;;;;;;;;;;5053964;28;20070;-75
2023/08/23 05:22:40;;;;;;;32.90;19.70;;;;;;;;;;5053967;28;20075;-75
2023/08/23 05:25:07;;;;;;;30.92;19.33;;;;;;;;;;5053887;28;20369;-75
2023/08/23 05:27:33;;;;;;;34.47;19.55;;;;;;;;;;5054086;28;20060;-75
2023/08/23 05:30:01;;;;;;;35.80;21.48;;;;;;;;;;5053750;28;20047;-75
2023/08/23 05:32:26;;;;;;;32.72;20.55;;;;;;;;;;5052431;28;20028;-75
2023/08/23 05:34:52;;;;;;;31.98;20.90;;;;;;;;;;5053593;28;20037;-75
2023/08/23 05:37:19;;;;;;;35.38;22.08;;;;;;;;;;5053732;28;20349;-75
2023/08/23 05:39:47;;;;;;;27.83;19.48;;;;;;;;;;5053939;28;20025;-75
2023/08/23 05:42:13;;;;;;;28.38;18.83;;;;;;;;;;5053796;28;20013;-75
2023/08/23 05:44:39;;;;;;;25.40;17.38;;;;;;;;;;5053267;28;20112;-75
2023/08/23 05:47:05;;;;;;;24.95;17.63;;;;;;;;;;5053527;28;20043;-75
2023/08/23 05:49:31;;;;;;;24.10;16.65;;;;;;;;;;5053458;28;20029;-75
2023/08/23 05:51:57;;;;;;;23.85;16.15;;;;;;;;;;5053690;28;20029;-75
2023/08/23 05:54:24;;;;;;;23.67;15.10;;;;;;;;;;5052667;28;20112;-75
2023/08/23 05:56:50;;;;;;;21.08;14.65;;;;;;;;;;5033869;28;20030;-75
2023/08/23 05:59:16;;;;;;;19.42;14.38;;;;;;;;;;5033913;28;20029;-75
2023/08/23 06:01:42;;;;;;;20.95;14.23;;;;;;;;;;5033896;28;20476;-75
2023/08/23 06:04:08;;;;;;;22.77;14.80;;;;;;;;;;5053745;28;20532;-76
2023/08/23 06:06:34;;;;;;;22.20;14.90;;;;;;;;;;5053907;28;20051;-75
2023/08/23 06:09:01;;;;;;;18.33;13.93;;;;;;;;;;5053962;28;20034;-75
2023/08/23 06:11:27;;;;;;;18.13;13.38;;;;;;;;;;5053464;28;20036;-76
2023/08/23 06:13:53;;;;;;;19.80;13.88;;;;;;;;;;5053493;28;20033;-76
2023/08/23 06:16:19;;;;;;;17.08;12.23;;;;;;;;;;5053369;28;20040;-76
2023/08/23 06:18:45;;;;;;;19.25;13.55;;;;;;;;;;5053492;28;20021;-75
2023/08/23 06:21:11;;;;;;;20.52;12.68;;;;;;;;;;5053570;28;20096;-75
2023/08/23 06:23:43;;;;;;;17.42;12.82;;;;;;;;;;5054800;28;20033;-75
2023/08/23 06:26:09;;;;;;;19.90;12.68;;;;;;;;;;5058233;28;20754;-75
2023/08/23 06:28:35;;;;;;;20.23;12.52;;;;;;;;;;5053875;28;20025;-75
2023/08/23 06:31:01;;;;;;;15.65;12.48;;;;;;;;;;5054364;28;20033;-75
2023/08/23 06:33:27;;;;;;;16.38;11.82;;;;;;;;;;5054670;28;20060;-75
2023/08/23 06:35:53;;;;;;;18.52;11.93;;;;;;;;;;5058760;28;20021;-75
2023/08/23 06:38:19;;;;;;;17.60;12.80;;;;;;;;;;5058669;28;20072;-75
2023/08/23 06:40:45;;;;;;;16.77;12.13;;;;;;;;;;5058627;28;20118;-75
2023/08/23 06:43:20;;;;;;;15.15;11.65;;;;;;;;;;5053296;28;20032;-75
2023/08/23 06:45:46;;;;;;;17.75;10.98;;;;;;;;;;5055366;28;20110;-76
2023/08/23 06:48:12;;;;;;;18.02;11.38;;;;;;;;;;5059325;28;20029;-76
2023/08/23 06:50:38;;;;;;;19.20;11.50;;;;;;;;;;5061244;28;20036;-76
2023/08/23 06:53:05;;;;;;;15.13;10.45;;;;;;;;;;5061609;28;20035;-76
2023/08/23 06:55:31;;;;;;;15.02;10.55;;;;;;;;;;5063786;28;20029;-76
2023/08/23 06:57:57;;;;;;;14.73;10.32;;;;;;;;;;5061205;28;20025;-76
2023/08/23 07:00:23;;;;;;;16.95;10.63;;;;;;;;;;5060190;28;20036;-76
2023/08/23 07:02:49;;;;;;;14.30;10.70;;;;;;;;;;5047777;28;20025;-76
2023/08/23 07:05:15;;;;;;;17.38;10.68;;;;;;;;;;5048539;28;20047;-76
2023/08/23 07:07:41;;;;;;;14.32;9.70;;;;;;;;;;5049637;28;20026;-76
2023/08/23 07:10:07;;;;;;;12.68;8.27;;;;;;;;;;5048964;28;20032;-77
2023/08/23 07:12:33;;;;;;;15.93;9.57;;;;;;;;;;5047650;28;20026;-77
2023/08/23 07:14:59;;;;;;;16.02;9.43;;;;;;;;;;5048836;28;20037;-76
2023/08/23 07:17:26;;;;;;;10.75;8.35;;;;;;;;;;5048025;28;20021;-76
2023/08/23 07:19:52;;;;;;;12.57;8.45;;;;;;;;;;5048323;28;20030;-76
2023/08/23 07:22:18;;;;;;;10.50;8.02;;;;;;;;;;5047625;28;20055;-76
2023/08/23 07:24:44;;;;;;;11.82;7.80;;;;;;;;;;5054222;28;20475;-76
2023/08/23 07:27:10;;;;;;;11.30;7.72;;;;;;;;;;5065785;28;20029;-76
2023/08/23 07:29:36;;;;;;;9.52;7.78;;;;;;;;;;5065637;28;20025;-76
2023/08/23 07:32:04;;;;;;;12.50;8.07;;;;;;;;;;5068483;28;20020;-75
2023/08/23 07:34:30;;;;;;;11.63;7.60;;;;;;;;;;5069329;28;20025;-76
2023/08/23 07:36:56;;;;;;;12.73;7.97;;;;;;;;;;5070387;28;20044;-75
2023/08/23 07:39:24;;;;;;;12.98;7.90;;;;;;;;;;5069511;28;20029;-76
2023/08/23 07:41:50;;;;;;;11.70;7.78;;;;;;;;;;5068679;28;20017;-76
2023/08/23 07:44:16;;;;;;;13.73;8.48;;;;;;;;;;5068451;28;20098;-76
2023/08/23 07:46:42;;;;;;;12.15;7.55;;;;;;;;;;5068341;28;20040;-76
2023/08/23 07:49:08;;;;;;;12.00;7.25;;;;;;;;;;5068053;28;20036;-76
2023/08/23 07:51:34;;;;;;;10.27;7.30;;;;;;;;;;5068596;28;20016;-76
2023/08/23 07:54:00;;;;;;;9.73;7.35;;;;;;;;;;5067756;28;20079;-76
2023/08/23 07:56:26;;;;;;;12.55;8.20;;;;;;;;;;5066539;28;20029;-76
2023/08/23 07:58:53;;;;;;;12.43;8.73;;;;;;;;;;5065678;28;20029;-76
2023/08/23 08:01:20;;;;;;;10.52;8.18;;;;;;;;;;5066507;28;20337;-76
2023/08/23 08:03:46;;;;;;;10.45;8.68;;;;;;;;;;5066490;28;20081;-76
2023/08/23 08:06:12;;;;;;;9.18;7.45;;;;;;;;;;5065416;28;20021;-75
2023/08/23 08:08:41;;;;;;;9.95;7.30;;;;;;;;;;5066602;28;20028;-76
2023/08/23 08:11:07;;;;;;;10.40;7.03;;;;;;;;;;5067251;28;20032;-76
2023/08/23 08:13:33;;;;;;;10.77;7.32;;;;;;;;;;5065656;28;20021;-76
2023/08/23 08:16:00;;;;;;;8.13;7.22;;;;;;;;;;5064192;28;20037;-76
2023/08/23 08:18:26;;;;;;;10.35;6.88;;;;;;;;;;5065761;28;20025;-76
2023/08/23 08:20:52;;;;;;;9.70;5.93;;;;;;;;;;5063213;28;20037;-76
2023/08/23 08:23:18;;;;;;;10.68;7.43;;;;;;;;;;5065616;28;20162;-76
2023/08/23 08:25:44;;;;;;;12.68;7.50;;;;;;;;;;5058300;28;20063;-76
2023/08/23 08:28:10;;;;;;;8.75;6.18;;;;;;;;;;5055212;28;20588;-77
2023/08/23 08:30:36;;;;;;;11.55;6.97;;;;;;;;;;5055123;28;20021;-77
2023/08/23 08:33:02;;;;;;;9.23;6.25;;;;;;;;;;5055262;28;20670;-77
2023/08/23 08:35:28;;;;;;;8.77;6.57;;;;;;;;;;5056900;28;20167;-77
2023/08/23 08:37:54;;;;;;;8.73;6.68;;;;;;;;;;5069282;28;20122;-76
2023/08/23 08:40:22;;;;;;;10.02;6.47;;;;;;;;;;5061133;28;20027;-77
2023/08/23 08:42:48;;;;;;;8.90;6.05;;;;;;;;;;5055058;28;20016;-77
2023/08/23 08:45:14;;;;;;;8.75;6.25;;;;;;;;;;5054644;28;20068;-77
2023/08/23 08:47:41;;;;;;;9.82;6.68;;;;;;;;;;5054431;28;20024;-77
2023/08/23 08:50:08;;;;;;;10.88;6.63;;;;;;;;;;5055356;28;20024;-77
2023/08/23 08:52:36;;;;;;;12.15;7.25;;;;;;;;;;5054959;28;20031;-78
2023/08/23 08:55:03;;;;;;;9.25;6.38;;;;;;;;;;5054790;28;20033;-78
2023/08/23 08:57:30;;;;;;;12.15;7.10;;;;;;;;;;5054427;28;20025;-77
2023/08/23 08:59:56;;;;;;;13.73;7.20;;;;;;;;;;5054376;28;20028;-77
2023/08/23 09:02:23;;;;;;;9.07;6.20;;;;;;;;;;5054401;28;20021;-77
2023/08/23 09:04:51;;;;;;;8.60;5.65;;;;;;;;;;5054305;28;20094;-77
2023/08/23 09:07:17;;;;;;;10.15;6.70;;;;;;;;;;5054560;28;20504;-77
2023/08/23 09:09:43;;;;;;;10.32;6.43;;;;;;;;;;5054149;28;20029;-77
2023/08/23 09:12:10;;;;;;;11.32;5.47;;;;;;;;;;5054203;28;20017;-77
2023/08/23 09:14:35;;;;;;;7.28;5.32;;;;;;;;;;5054059;28;20032;-77
2023/08/23 09:17:01;;;;;;;8.20;4.78;;;;;;;;;;5054023;28;20024;-77
2023/08/23 09:19:28;;;;;;;9.05;4.47;;;;;;;;;;5054115;28;20053;-77
2023/08/23 09:21:55;;;;;;;8.10;4.70;;;;;;;;;;5053973;28;20479;-77
2023/08/23 09:24:21;;;;;;;10.63;4.85;;;;;;;;;;5053683;28;20129;-77
2023/08/23 09:26:47;;;;;;;8.10;5.60;;;;;;;;;;5053635;28;20487;-77
2023/08/23 09:29:13;;;;;;;12.85;5.90;;;;;;;;;;5058232;28;20025;-77
2023/08/23 09:31:42;;;;;;;11.82;6.30;;;;;;;;;;5063512;28;20052;-77
2023/08/23 09:34:12;;;;;;;8.10;6.07;;;;;;;;;;5066390;28;20033;-77
2023/08/23 09:36:41;;;;;;;10.65;5.40;;;;;;;;;;5066158;28;20029;-77
2023/08/23 09:39:10;;;;;;;10.05;6.60;;;;;;;;;;5064743;28;20071;-78
2023/08/23 09:41:38;;;;;;;10.07;6.05;;;;;;;;;;5065007;28;20021;-77
2023/08/23 09:44:04;;;;;;;11.77;7.70;;;;;;;;;;5064872;28;20064;-78
2023/08/23 09:46:32;;;;;;;8.77;6.72;;;;;;;;;;5066291;28;20019;-77
2023/08/23 09:49:00;;;;;;;10.98;6.70;;;;;;;;;;5067061;28;20032;-77
2023/08/23 09:51:28;;;;;;;9.73;6.03;;;;;;;;;;5065405;28;20025;-78
2023/08/23 09:53:56;;;;;;;12.68;7.60;;;;;;;;;;5066493;28;20104;-77
2023/08/23 09:56:23;;;;;;;10.52;6.60;;;;;;;;;;5065118;28;20096;-77
2023/08/23 09:58:49;;;;;;;8.68;6.65;;;;;;;;;;5063721;28;20036;-77
2023/08/23 10:01:16;;;;;;;10.82;6.78;;;;;;;;;;5064531;28;20017;-78
2023/08/23 10:03:42;;;;;;;11.75;7.97;;;;;;;;;;5059023;28;20028;-78
2023/08/23 10:06:09;;;;;;;14.45;7.55;;;;;;;;;;5064696;28;20021;-79
2023/08/23 10:08:39;;;;;;;11.55;6.40;;;;;;;;;;5064526;28;20032;-78
2023/08/23 10:11:06;;;;;;;8.90;6.20;;;;;;;;;;5064081;28;20118;-77
2023/08/23 10:13:34;;;;;;;7.80;5.80;;;;;;;;;;5065231;28;20029;-77
2023/08/23 10:16:00;;;;;;;10.90;5.65;;;;;;;;;;5065113;28;20028;-77
2023/08/23 10:18:29;;;;;;;11.25;5.03;;;;;;;;;;5065253;28;20028;-78
2023/08/23 10:20:55;;;;;;;7.97;4.72;;;;;;;;;;5062525;28;20028;-77
2023/08/23 10:23:22;;;;;;;7.35;4.72;;;;;;;;;;5057540;28;20025;-77
2023/08/23 10:25:54;;;;;;;7.82;5.20;;;;;;;;;;5052676;28;20060;-77
2023/08/23 10:28:20;;;;;;;6.63;4.35;;;;;;;;;;5052722;28;20032;-77
2023/08/23 10:30:47;;;;;;;6.93;3.97;;;;;;;;;;5052967;28;20024;-78
2023/08/23 10:33:14;;;;;;;8.68;4.15;;;;;;;;;;5052501;28;20033;-77
2023/08/23 10:35:41;;;;;;;10.30;5.65;;;;;;;;;;5052545;28;20029;-77
2023/08/23 10:38:08;;;;;;;6.20;4.80;;;;;;;;;;5052550;28;20021;-77
2023/08/23 10:40:35;;;;;;;8.43;4.57;;;;;;;;;;5053151;28;20017;-77
2023/08/23 10:43:10;;;;;;;9.50;4.93;;;;;;;;;;5052376;28;20029;-77
2023/08/23 10:45:57;;;;;;;6.18;3.53;;;;;;;;;;5051647;28;20094;-77
2023/08/23 10:48:23;;;;;;;5.50;3.90;;;;;;;;;;5052362;28;20029;-77
2023/08/23 10:50:50;;;;;;;6.40;3.92;;;;;;;;;;5052229;28;20021;-77
2023/08/23 10:53:17;;;;;;;5.72;3.88;;;;;;;;;;5052359;28;20063;-77
2023/08/23 10:55:43;;;;;;;6.40;3.58;;;;;;;;;;5052365;28;20029;-77
2023/08/23 10:58:09;;;;;;;5.00;2.80;;;;;;;;;;5052337;28;20031;-77
2023/08/23 11:00:35;;;;;;;6.15;2.60;;;;;;;;;;5052326;28;20025;-77
2023/08/23 11:03:01;;;;;;;3.28;2.20;;;;;;;;;;5052204;28;20024;-77
2023/08/23 11:05:27;;;;;;;7.38;2.83;;;;;;;;;;5052549;28;20033;-77
2023/08/23 11:07:53;;;;;;;4.78;3.35;;;;;;;;;;5052227;28;20025;-77
2023/08/23 11:10:19;;;;;;;7.18;3.13;;;;;;;;;;5052137;28;20125;-77
2023/08/23 11:12:45;;;;;;;4.70;3.03;;;;;;;;;;5052054;28;20049;-77
2023/08/23 11:15:11;;;;;;;6.20;4.05;;;;;;;;;;5051956;28;20021;-77
2023/08/23 11:17:37;;;;;;;4.93;3.65;;;;;;;;;;5052089;28;20363;-77
2023/08/23 11:20:04;;;;;;;4.40;3.13;;;;;;;;;;5052108;28;20384;-77
2023/08/23 11:22:30;;;;;;;5.25;2.33;;;;;;;;;;5051443;28;20035;-77
2023/08/23 11:24:59;;;;;;;5.53;3.05;;;;;;;;;;5051491;28;20029;-77
2023/08/23 11:27:25;;;;;;;5.85;2.38;;;;;;;;;;5051903;28;20495;-77
2023/08/23 11:29:51;;;;;;;2.70;2.00;;;;;;;;;;5051647;28;20033;-77
2023/08/23 11:32:17;;;;;;;3.17;2.65;;;;;;;;;;5051682;28;20083;-77
2023/08/23 11:34:43;;;;;;;3.58;2.20;;;;;;;;;;5051605;28;20025;-77
2023/08/23 11:37:10;;;;;;;4.88;2.10;;;;;;;;;;5051897;28;20033;-77
2023/08/23 11:39:36;;;;;;;7.53;2.45;;;;;;;;;;5051225;28;20094;-77
2023/08/23 11:42:02;;;;;;;3.10;2.30;;;;;;;;;;5050633;28;20017;-77
2023/08/23 11:44:28;;;;;;;4.05;2.38;;;;;;;;;;5050523;28;20492;-77
2023/08/23 11:46:57;;;;;;;4.00;2.03;;;;;;;;;;5050712;28;20043;-77
2023/08/23 11:49:23;;;;;;;4.35;2.20;;;;;;;;;;5051280;28;20043;-77
2023/08/23 11:51:50;;;;;;;5.60;1.50;;;;;;;;;;5050882;28;20025;-77
2023/08/23 11:54:16;;;;;;;5.20;2.25;;;;;;;;;;5051325;28;20032;-77
2023/08/23 11:56:43;;;;;;;3.17;2.25;;;;;;;;;;5051823;28;20029;-77
2023/08/23 11:59:10;;;;;;;3.45;2.05;;;;;;;;;;5051669;28;20155;-77
2023/08/23 12:01:38;;;;;;;4.65;1.95;;;;;;;;;;5054883;28;20032;-77
2023/08/23 12:04:04;;;;;;;4.32;2.20;;;;;;;;;;5055634;28;20028;-77
2023/08/23 12:06:31;;;;;;;5.65;1.90;;;;;;;;;;5055584;28;20025;-77
2023/08/23 12:08:57;;;;;;;5.47;1.83;;;;;;;;;;5055301;28;20055;-77
2023/08/23 12:11:23;;;;;;;4.25;2.10;;;;;;;;;;5055203;28;20381;-77
2023/08/23 12:13:49;;;;;;;2.92;1.40;;;;;;;;;;5055370;28;20033;-76
2023/08/23 12:16:15;;;;;;;3.33;1.40;;;;;;;;;;5055010;28;20021;-77
2023/08/23 12:18:41;;;;;;;3.92;2.10;;;;;;;;;;5054979;28;20029;-77
2023/08/23 12:21:08;;;;;;;4.78;3.55;;;;;;;;;;5054983;28;20021;-77
2023/08/23 12:23:34;;;;;;;7.18;3.17;;;;;;;;;;5055060;28;20360;-77
2023/08/23 12:26:00;;;;;;;6.78;3.33;;;;;;;;;;5055157;28;20021;-77
2023/08/23 12:28:26;;;;;;;7.28;3.47;;;;;;;;;;5054919;28;20486;-78
2023/08/23 12:30:52;;;;;;;5.95;3.38;;;;;;;;;;5054939;28;20025;-77
2023/08/23 12:33:18;;;;;;;4.78;3.20;;;;;;;;;;5054695;28;20044;-76
2023/08/23 12:35:44;;;;;;;6.75;4.00;;;;;;;;;;5054849;28;20472;-76
2023/08/23 12:38:10;;;;;;;7.82;3.85;;;;;;;;;;5054722;28;20025;-76
2023/08/23 12:40:37;;;;;;;5.57;4.15;;;;;;;;;;5054442;28;20025;-77
2023/08/23 12:43:03;;;;;;;4.50;3.42;;;;;;;;;;5054918;28;20154;-77
2023/08/23 12:45:29;;;;;;;6.55;3.88;;;;;;;;;;5054813;28;20049;-78
2023/08/23 12:47:56;;;;;;;5.30;4.10;;;;;;;;;;5056934;28;20111;-77
2023/08/23 12:50:22;;;;;;;5.45;3.75;;;;;;;;;;5060401;28;20456;-76
2023/08/23 12:52:48;;;;;;;11.30;3.45;;;;;;;;;;5062568;28;20098;-77
2023/08/23 12:55:14;;;;;;;4.68;2.63;;;;;;;;;;5057139;28;20492;-77
2023/08/23 12:57:40;;;;;;;5.97;2.60;;;;;;;;;;5060346;28;20052;-77
2023/08/23 13:00:08;;;;;;;5.80;2.90;;;;;;;;;;5061333;28;20025;-77
2023/08/23 13:02:34;;;;;;;5.88;2.05;;;;;;;;;;5058178;28;20108;-77
2023/08/23 13:05:00;;;;;;;3.10;1.80;;;;;;;;;;5060542;28;20033;-76
2023/08/23 13:07:26;;;;;;;5.68;1.92;;;;;;;;;;5061244;28;20029;-77
2023/08/23 13:09:52;;;;;;;6.80;1.80;;;;;;;;;;5062542;28;20415;-77
2023/08/23 13:12:18;;;;;;;3.58;1.27;;;;;;;;;;5059120;28;20074;-77
2023/08/23 13:14:44;;;;;;;3.88;1.40;;;;;;;;;;5057966;28;20032;-77
2023/08/23 13:17:10;;;;;;;2.67;1.70;;;;;;;;;;5061291;28;20025;-76
2023/08/23 13:19:36;;;;;;;4.30;1.75;;;;;;;;;;5061001;28;20464;-77
2023/08/23 13:22:02;;;;;;;19.38;3.10;;;;;;;;;;5058339;28;20025;-77
2023/08/23 13:24:28;;;;;;;3.05;1.42;;;;;;;;;;5060853;28;20025;-77
2023/08/23 13:26:55;;;;;;;4.20;1.38;;;;;;;;;;5060181;28;20025;-77
2023/08/23 13:29:21;;;;;;;2.35;1.15;;;;;;;;;;5056053;28;20029;-77
2023/08/23 13:31:48;;;;;;;3.03;1.35;;;;;;;;;;5058623;28;20024;-77
2023/08/23 13:34:14;;;;;;;1.70;1.00;;;;;;;;;;5059626;28;20116;-76
2023/08/23 13:36:44;;;;;;;3.03;1.08;;;;;;;;;;5059537;28;20025;-76
2023/08/23 13:39:10;;;;;;;;;;;;;;;;;;5059862;28;20071;-77
2023/08/23 13:41:37;;;;;;;2.63;1.17;;;;;;;;;;5059185;28;19911;-77
2023/08/23 13:44:03;;;;;;;3.38;1.10;;;;;;;;;;5056902;28;20680;-76
2023/08/23 13:46:29;;;;;;;1.83;0.90;;;;;;;;;;5057196;28;20044;-76
2023/08/23 13:48:55;;;;;;;1.67;1.10;;;;;;;;;;5057073;28;20400;-76
2023/08/23 13:51:21;;;;;;;3.63;1.10;;;;;;;;;;5057515;28;20040;-77
2023/08/23 13:53:48;;;;;;;1.77;0.80;;;;;;;;;;5058218;28;20103;-77
2023/08/23 13:56:15;;;;;;;1.30;0.52;;;;;;;;;;5057520;28;20025;-77
2023/08/23 13:58:41;;;;;;;1.63;0.75;;;;;;;;;;5056503;28;20357;-77
2023/08/23 14:01:07;;;;;;;2.47;0.88;;;;;;;;;;5056470;28;20029;-77
2023/08/23 14:03:33;;;;;;;3.45;0.80;;;;;;;;;;5056407;28;20357;-76
2023/08/23 14:06:00;;;;;;;1.77;0.73;;;;;;;;;;5057733;28;20037;-77
2023/08/23 14:08:26;;;;;;;2.03;1.10;;;;;;;;;;5057373;28;20060;-76
2023/08/23 14:10:53;;;;;;;2.58;0.80;;;;;;;;;;5057233;28;20033;-76
2023/08/23 14:13:19;;;;;;;1.75;0.70;;;;;;;;;;5056037;28;20112;-76
2023/08/23 14:15:45;;;;;;;2.15;0.85;;;;;;;;;;5055867;28;20075;-76
2023/08/23 14:18:11;;;;;;;2.13;0.80;;;;;;;;;;5057232;28;20029;-76
2023/08/23 14:20:37;;;;;;;2.40;0.95;;;;;;;;;;5056177;28;20021;-76
2023/08/23 14:23:04;;;;;;;2.17;0.90;;;;;;;;;;5055055;28;20025;-76
2023/08/23 14:25:31;;;;;;;1.95;0.80;;;;;;;;;;5056409;28;20071;-76